KHYA

Barnstable Municipal-Boardman / Polando Field Airport

Hyannis, Massachusetts, USA
METAR KHYA 230056Z 00000KT 10SM SCT110 04/02 A3019 RMK AO2 SLP224 T00390017
Observed Flight Rules
Oct-23 @ 00:56 UTC (24 minutes ago) Visual Flight Rules
Visibility Clouds
10 miles
  • Scattered at 11,000' AGL
Temperatures Readings
Current 4°C / 39°F
Dewpoint 2°C / 36°F
Humidity 87%
Altimeter 30.19" Hg
Pressure 1022.4 hPa
Elevation 22
METAR KHYA 230056Z 00000KT 10SM SCT110 04/02 A3019 RMK AO2 SLP224 T00390017
Observed Flight Rules
Oct-23 @ 00:56 UTC
(24 minutes ago)
VFR
Clouds
  • Scattered at 11,000' AGL
Temperature Dewpoint
4°C / 39°F 2°C / 36°F
Humidity Altimeter Pressure
87% 30.19" Hg 1022.4 hPa